createdAt,value
2023-05-02T00:00:36.632Z,72.40
2023-05-02T00:01:38.985Z,72.50
2023-05-02T00:02:41.704Z,72.50
2023-05-02T00:03:44.985Z,72.50
2023-05-02T00:04:47.317Z,72.40
2023-05-02T00:05:49.520Z,72.60
2023-05-02T00:06:52.961Z,72.50
2023-05-02T00:07:55.368Z,72.70
2023-05-02T00:08:58.028Z,72.50
2023-05-02T00:10:02.932Z,73.10
2023-05-02T00:11:05.890Z,72.40
2023-05-02T00:12:08.647Z,72.30
2023-05-02T00:13:12.407Z,72.30
2023-05-02T00:14:14.620Z,72.10
2023-05-02T00:15:16.926Z,72.00
2023-05-02T00:16:19.213Z,71.90
2023-05-02T00:17:21.701Z,71.70
2023-05-02T00:18:24.473Z,71.70
2023-05-02T00:19:26.713Z,71.70
2023-05-02T00:20:28.885Z,71.60
2023-05-02T00:21:31.353Z,71.40
2023-05-02T00:22:33.492Z,71.40
2023-05-02T00:23:35.685Z,71.40
2023-05-02T00:24:37.818Z,71.40
2023-05-02T00:25:45.507Z,71.20
2023-05-02T00:26:47.914Z,71.30
2023-05-02T00:27:51.261Z,71.20
2023-05-02T00:28:55.176Z,71.30
2023-05-02T00:29:58.569Z,71.40
2023-05-02T00:31:01.280Z,71.20
2023-05-02T00:32:03.603Z,71.30
2023-05-02T00:33:07.125Z,71.30
2023-05-02T00:34:09.465Z,71.30
2023-05-02T00:35:11.826Z,71.10
2023-05-02T00:36:15.265Z,71.40
2023-05-02T00:37:18.457Z,71.50
2023-05-02T00:38:20.620Z,71.50
2023-05-02T00:39:22.912Z,71.60
2023-05-02T00:40:25.064Z,71.60
2023-05-02T00:41:27.549Z,71.70
2023-05-02T00:42:31.704Z,71.80
2023-05-02T00:43:34.221Z,71.80
2023-05-02T00:44:37.803Z,71.90
2023-05-02T00:45:43.644Z,71.90
2023-05-02T00:46:46.054Z,71.90
2023-05-02T00:47:49.586Z,71.90
2023-05-02T00:48:52.201Z,72.00
2023-05-02T00:49:54.458Z,72.10
2023-05-02T00:50:57.533Z,72.00
2023-05-02T00:51:59.783Z,72.10
2023-05-02T00:53:03.830Z,71.90
2023-05-02T00:54:06.438Z,72.00
2023-05-02T00:55:09.299Z,71.90
2023-05-02T00:56:11.682Z,71.90
2023-05-02T00:57:14.090Z,71.90
2023-05-02T00:58:19.189Z,71.80
2023-05-02T00:59:21.615Z,71.80
2023-05-02T01:00:36.866Z,71.80
2023-05-02T01:01:51.005Z,71.80
2023-05-02T01:03:04.162Z,71.70
2023-05-02T01:04:18.028Z,71.60
2023-05-02T01:05:24.778Z,71.60
2023-05-02T01:06:36.891Z,71.40
2023-05-02T01:08:03.304Z,71.40
2023-05-02T01:09:22.471Z,71.40
2023-05-02T01:10:48.289Z,71.40
2023-05-02T01:11:57.044Z,71.40
2023-05-02T01:13:03.894Z,71.30
2023-05-02T01:14:09.035Z,71.50
2023-05-02T01:15:16.513Z,71.40
2023-05-02T01:16:23.246Z,71.40
2023-05-02T01:17:30.661Z,71.40
2023-05-02T01:18:39.343Z,71.30
2023-05-02T01:19:45.235Z,71.20
2023-05-02T01:20:51.454Z,71.10
2023-05-02T01:21:55.340Z,71.10
2023-05-02T01:23:07.370Z,71.10
2023-05-02T01:24:17.023Z,71.20
2023-05-02T01:25:28.209Z,71.10
2023-05-02T01:26:34.669Z,71.00
2023-05-02T01:27:47.897Z,70.90
2023-05-02T01:28:59.737Z,71.20
2023-05-02T01:30:03.458Z,71.20
2023-05-02T01:31:07.036Z,71.20
2023-05-02T01:32:11.722Z,71.00
2023-05-02T01:33:38.544Z,71.00
2023-05-02T01:34:41.999Z,70.70
2023-05-02T01:35:46.573Z,70.70
2023-05-02T01:36:51.645Z,70.60
2023-05-02T01:37:55.944Z,70.50
2023-05-02T01:39:00.403Z,70.40
2023-05-02T01:40:05.102Z,70.30
2023-05-02T01:41:08.078Z,70.10
2023-05-02T01:42:13.299Z,70.10
2023-05-02T01:43:17.050Z,70.00
2023-05-02T01:44:23.104Z,70.00
2023-05-02T01:45:26.597Z,69.90
2023-05-02T01:46:33.345Z,69.90
2023-05-02T01:47:38.015Z,69.80
2023-05-02T01:48:42.169Z,69.70
2023-05-02T01:49:48.001Z,69.70
2023-05-02T01:50:52.418Z,69.80
2023-05-02T01:51:55.367Z,69.70
2023-05-02T01:53:02.144Z,69.60
2023-05-02T01:54:06.557Z,69.40
2023-05-02T01:55:13.917Z,69.60
2023-05-02T01:56:18.492Z,69.60
2023-05-02T01:57:23.816Z,69.50
2023-05-02T01:58:28.579Z,69.40
2023-05-02T01:59:34.259Z,69.40
2023-05-02T02:00:38.910Z,69.50
2023-05-02T02:01:43.853Z,69.40
2023-05-02T02:02:48.758Z,69.40
2023-05-02T02:03:51.748Z,69.40
2023-05-02T02:04:54.936Z,69.30
2023-05-02T02:05:58.939Z,69.30
2023-05-02T02:07:03.951Z,69.20
2023-05-02T02:08:06.266Z,69.20
2023-05-02T02:09:08.887Z,68.90
2023-05-02T02:10:11.671Z,68.80
2023-05-02T02:11:20.537Z,68.80
2023-05-02T02:12:27.415Z,68.90
2023-05-02T02:13:35.713Z,68.80
2023-05-02T02:14:42.922Z,68.80
2023-05-02T02:15:49.788Z,68.60
2023-05-02T02:16:56.261Z,68.60
2023-05-02T02:18:01.504Z,68.60
2023-05-02T02:19:08.494Z,68.50
2023-05-02T02:20:13.481Z,68.40
2023-05-02T02:21:19.056Z,68.50
2023-05-02T02:22:23.463Z,69.10
2023-05-02T02:23:28.707Z,68.30
2023-05-02T02:24:32.369Z,68.20
2023-05-02T02:25:35.932Z,68.20
2023-05-02T02:26:38.394Z,68.20
2023-05-02T02:27:41.572Z,68.30
2023-05-02T02:28:44.243Z,68.30
2023-05-02T02:29:48.417Z,68.20
2023-05-02T02:30:50.903Z,68.20
2023-05-02T02:31:53.091Z,68.20
2023-05-02T02:32:55.467Z,68.20
2023-05-02T02:33:57.868Z,68.10
2023-05-02T02:35:00.802Z,68.20
2023-05-02T02:36:12.520Z,68.30
2023-05-02T02:37:19.499Z,68.30
2023-05-02T02:38:31.767Z,68.30
2023-05-02T02:39:41.613Z,68.30
2023-05-02T02:40:47.893Z,68.30
2023-05-02T02:42:01.675Z,68.30
2023-05-02T02:43:09.906Z,68.40
2023-05-02T02:44:26.139Z,68.50
2023-05-02T02:45:36.766Z,68.40
2023-05-02T02:46:50.714Z,68.40
2023-05-02T02:48:04.095Z,68.40
2023-05-02T02:49:18.895Z,68.50
2023-05-02T02:50:35.010Z,68.50
2023-05-02T02:51:43.660Z,68.40
2023-05-02T02:52:53.725Z,68.50
2023-05-02T02:54:09.972Z,68.50
2023-05-02T02:55:29.728Z,68.50
2023-05-02T02:56:40.242Z,68.50
2023-05-02T02:57:54.859Z,68.60
2023-05-02T02:59:02.298Z,68.60
2023-05-02T03:00:19.227Z,68.70
2023-05-02T03:01:24.690Z,68.70
2023-05-02T03:02:30.970Z,68.70
2023-05-02T03:03:34.483Z,68.70
2023-05-02T03:04:39.590Z,69.40
2023-05-02T03:05:42.824Z,68.80
2023-05-02T03:06:45.241Z,68.80
2023-05-02T03:07:47.593Z,68.60
2023-05-02T03:08:50.259Z,68.70
2023-05-02T03:09:52.456Z,68.60
2023-05-02T03:10:54.688Z,68.80
2023-05-02T03:11:59.823Z,68.70
2023-05-02T03:13:02.632Z,68.70
2023-05-02T03:14:04.756Z,68.80
2023-05-02T03:15:22.458Z,68.80
2023-05-02T03:16:35.657Z,68.80
2023-05-02T03:17:38.138Z,68.70
2023-05-02T03:18:41.059Z,68.60
2023-05-02T03:19:43.308Z,68.60
2023-05-02T03:20:45.437Z,68.50
2023-05-02T03:21:48.047Z,68.60
2023-05-02T03:22:50.279Z,68.60
2023-05-02T03:23:53.373Z,68.60
2023-05-02T03:24:55.565Z,68.70
2023-05-02T03:25:58.012Z,68.60
2023-05-02T03:27:00.366Z,68.50
2023-05-02T03:28:02.867Z,68.40
2023-05-02T03:29:05.409Z,68.40
2023-05-02T03:30:09.082Z,68.40
2023-05-02T03:31:11.635Z,68.40
2023-05-02T03:32:15.337Z,68.40
2023-05-02T03:33:17.607Z,68.10
2023-05-02T03:34:22.053Z,68.10
2023-05-02T03:35:24.430Z,68.10
2023-05-02T03:36:26.587Z,68.00
2023-05-02T03:37:28.747Z,68.10
2023-05-02T03:38:31.018Z,68.00
2023-05-02T03:39:33.263Z,68.10
2023-05-02T03:40:35.529Z,68.00
2023-05-02T03:41:37.745Z,68.00
2023-05-02T03:42:40.116Z,67.90
2023-05-02T03:43:42.291Z,67.80
2023-05-02T03:44:44.538Z,67.80
2023-05-02T03:45:48.596Z,67.60
2023-05-02T03:46:51.093Z,67.30
2023-05-02T03:47:54.745Z,67.30
2023-05-02T03:48:58.155Z,67.40
2023-05-02T03:50:03.800Z,67.30
2023-05-02T03:51:09.648Z,67.30
2023-05-02T03:52:12.298Z,67.10
2023-05-02T03:53:16.188Z,67.00
2023-05-02T03:54:18.402Z,67.00
2023-05-02T03:55:21.398Z,66.90
2023-05-02T03:56:24.361Z,66.80
2023-05-02T03:57:26.715Z,66.50
2023-05-02T03:58:29.216Z,66.40
2023-05-02T03:59:34.233Z,66.40
2023-05-02T04:00:36.757Z,66.50
2023-05-02T04:01:39.043Z,66.30
2023-05-02T04:02:41.625Z,66.30
2023-05-02T04:03:45.697Z,66.20
2023-05-02T04:04:48.091Z,66.20
2023-05-02T04:05:51.858Z,66.10
2023-05-02T04:06:54.138Z,66.10
2023-05-02T04:07:57.075Z,66.00
2023-05-02T04:08:59.744Z,65.90
2023-05-02T04:10:02.763Z,65.80
2023-05-02T04:11:05.380Z,65.70
2023-05-02T04:12:07.674Z,65.70
2023-05-02T04:13:09.889Z,65.30
2023-05-02T04:14:12.169Z,65.20
2023-05-02T04:15:14.919Z,65.10
2023-05-02T04:16:17.333Z,65.10
2023-05-02T04:17:19.635Z,64.90
2023-05-02T04:18:21.861Z,64.70
2023-05-02T04:19:25.561Z,64.80
2023-05-02T04:20:27.970Z,64.70
2023-05-02T04:21:30.236Z,64.60
2023-05-02T04:22:33.303Z,64.70
2023-05-02T04:23:35.551Z,64.60
2023-05-02T04:24:37.995Z,64.20
2023-05-02T04:25:40.281Z,64.10
2023-05-02T04:26:42.740Z,64.10
2023-05-02T04:27:45.092Z,64.20
2023-05-02T04:28:47.279Z,64.00
2023-05-02T04:29:49.831Z,63.90
2023-05-02T04:30:52.331Z,64.00
2023-05-02T04:31:57.405Z,64.00
2023-05-02T04:32:59.839Z,63.80
2023-05-02T04:34:02.252Z,63.60
2023-05-02T04:35:06.812Z,63.70
2023-05-02T04:36:10.999Z,63.80
2023-05-02T04:37:13.260Z,63.60
2023-05-02T04:38:15.721Z,63.30
2023-05-02T04:39:17.797Z,63.40
2023-05-02T04:40:19.895Z,63.50
2023-05-02T04:41:23.225Z,63.50
2023-05-02T04:42:27.785Z,63.50
2023-05-02T04:43:30.451Z,63.40
2023-05-02T04:44:32.723Z,63.20
2023-05-02T04:45:36.513Z,63.20
2023-05-02T04:46:38.827Z,63.30
2023-05-02T04:47:41.595Z,63.30
2023-05-02T04:48:44.016Z,63.20
2023-05-02T04:49:46.317Z,63.00
2023-05-02T04:50:50.209Z,62.80
2023-05-02T04:51:53.267Z,62.90
2023-05-02T04:52:55.662Z,62.70
2023-05-02T04:53:57.920Z,62.80
2023-05-02T04:55:00.150Z,62.80
2023-05-02T04:56:02.362Z,62.80
2023-05-02T04:57:07.493Z,62.70
2023-05-02T04:58:09.762Z,62.80
2023-05-02T04:59:12.003Z,62.90
2023-05-02T05:00:15.653Z,62.90
2023-05-02T05:01:18.161Z,62.80
2023-05-02T05:02:20.567Z,62.70
2023-05-02T05:03:23.513Z,62.50
2023-05-02T05:04:25.819Z,62.70
2023-05-02T05:05:28.131Z,62.50
2023-05-02T05:06:32.114Z,62.70
2023-05-02T05:07:35.006Z,62.60
2023-05-02T05:08:37.147Z,62.60
2023-05-02T05:09:39.326Z,62.60
2023-05-02T05:10:41.592Z,62.40
2023-05-02T05:11:46.195Z,62.40
2023-05-02T05:12:49.493Z,62.40
2023-05-02T05:13:51.885Z,62.40
2023-05-02T05:14:54.326Z,62.20
2023-05-02T05:15:56.923Z,62.20
2023-05-02T05:16:59.503Z,62.20
2023-05-02T05:18:02.505Z,62.10
2023-05-02T05:19:05.244Z,61.70
2023-05-02T05:20:10.264Z,61.80
2023-05-02T05:21:12.726Z,61.80
2023-05-02T05:22:16.378Z,61.50
2023-05-02T05:23:18.667Z,61.40
2023-05-02T05:24:20.834Z,61.30
2023-05-02T05:25:23.005Z,61.20
2023-05-02T05:26:25.350Z,61.40
2023-05-02T05:27:27.609Z,61.40
2023-05-02T05:28:29.816Z,61.30
2023-05-02T05:29:33.117Z,61.30
2023-05-02T05:30:35.300Z,61.20
2023-05-02T05:31:37.721Z,60.80
2023-05-02T05:32:40.054Z,60.80
2023-05-02T05:33:42.395Z,60.80
2023-05-02T05:34:44.724Z,60.80
2023-05-02T05:35:46.924Z,60.80
2023-05-02T05:36:49.071Z,60.30
2023-05-02T05:37:53.337Z,60.40
2023-05-02T05:38:55.768Z,60.30
2023-05-02T05:39:58.169Z,60.00
2023-05-02T05:41:01.351Z,59.80
2023-05-02T05:42:03.811Z,59.80
2023-05-02T05:43:06.460Z,59.80
2023-05-02T05:44:08.589Z,59.80
2023-05-02T05:45:12.458Z,59.60
2023-05-02T05:46:14.634Z,59.40
2023-05-02T05:47:20.441Z,59.30
2023-05-02T05:48:23.360Z,59.30
2023-05-02T05:49:25.709Z,59.20
2023-05-02T05:50:27.928Z,59.10
2023-05-02T05:51:30.199Z,59.10
2023-05-02T05:52:32.594Z,58.90
2023-05-02T05:53:36.369Z,58.80
2023-05-02T05:54:38.550Z,58.80
2023-05-02T05:55:42.395Z,58.90
2023-05-02T05:56:45.107Z,58.80
2023-05-02T05:57:47.267Z,58.60
2023-05-02T05:58:49.663Z,58.60
2023-05-02T05:59:52.643Z,58.60
2023-05-02T06:00:54.998Z,58.50
2023-05-02T06:01:57.928Z,58.50
2023-05-02T06:03:00.201Z,58.40
2023-05-02T06:04:05.362Z,58.30
2023-05-02T06:05:08.373Z,58.30
2023-05-02T06:06:10.775Z,58.20
2023-05-02T06:07:13.049Z,58.10
2023-05-02T06:08:15.273Z,58.10
2023-05-02T06:09:18.821Z,58.00
2023-05-02T06:10:21.015Z,58.00
2023-05-02T06:11:24.513Z,57.70
2023-05-02T06:12:27.338Z,57.50
2023-05-02T06:13:29.477Z,57.50
2023-05-02T06:14:31.715Z,57.30
2023-05-02T06:15:35.156Z,57.10
2023-05-02T06:16:37.582Z,56.90
2023-05-02T06:17:39.880Z,57.00
2023-05-02T06:18:42.052Z,56.90
2023-05-02T06:19:44.192Z,56.80
2023-05-02T06:20:46.309Z,56.70
2023-05-02T06:21:48.605Z,56.60
2023-05-02T06:22:50.749Z,56.40
2023-05-02T06:23:53.127Z,56.50
2023-05-02T06:24:57.125Z,56.60
2023-05-02T06:26:00.819Z,56.50
2023-05-02T06:27:02.914Z,56.50
2023-05-02T06:28:05.132Z,56.40
2023-05-02T06:29:07.296Z,56.00
2023-05-02T06:30:10.117Z,56.10
2023-05-02T06:31:12.379Z,56.10
2023-05-02T06:32:14.633Z,56.10
2023-05-02T06:33:16.907Z,55.80
2023-05-02T06:34:19.437Z,55.90
2023-05-02T06:35:21.564Z,55.50
2023-05-02T06:36:23.666Z,55.40
2023-05-02T06:37:25.993Z,55.30
2023-05-02T06:38:28.292Z,55.20
2023-05-02T06:39:31.188Z,54.90
2023-05-02T06:40:37.585Z,55.00
2023-05-02T06:41:40.039Z,54.90
2023-05-02T06:42:42.204Z,55.10
2023-05-02T06:43:44.329Z,55.00
2023-05-02T06:44:46.678Z,55.10
2023-05-02T06:45:54.637Z,55.00
2023-05-02T06:46:56.857Z,54.90
2023-05-02T06:47:59.190Z,54.90
2023-05-02T06:49:01.329Z,54.80
2023-05-02T06:50:03.997Z,54.70
2023-05-02T06:51:06.285Z,55.30
2023-05-02T06:52:08.476Z,54.80
2023-05-02T06:53:10.918Z,55.00
2023-05-02T06:54:13.155Z,55.10
2023-05-02T06:55:15.439Z,54.80
2023-05-02T06:56:19.079Z,54.50
2023-05-02T06:57:21.243Z,54.50
2023-05-02T06:58:24.556Z,54.50
2023-05-02T06:59:26.739Z,54.50
2023-05-02T07:00:28.840Z,54.50
2023-05-02T07:01:31.768Z,54.40
2023-05-02T07:02:34.128Z,54.40
2023-05-02T07:03:36.956Z,54.30
2023-05-02T07:04:39.205Z,54.40
2023-05-02T07:05:41.639Z,54.10
2023-05-02T07:06:45.206Z,54.10
2023-05-02T07:07:47.596Z,54.30
2023-05-02T07:08:49.887Z,54.30
2023-05-02T07:09:52.366Z,54.40
2023-05-02T07:10:56.406Z,54.20
2023-05-02T07:12:00.963Z,54.30
2023-05-02T07:13:03.113Z,54.40
2023-05-02T07:14:05.457Z,54.50
2023-05-02T07:15:08.390Z,54.30
2023-05-02T07:16:10.682Z,54.30
2023-05-02T07:17:13.314Z,54.20
2023-05-02T07:18:15.620Z,54.40
2023-05-02T07:19:17.837Z,54.80
2023-05-02T07:20:20.238Z,54.80
2023-05-02T07:21:22.364Z,54.60
2023-05-02T07:22:24.533Z,54.70
2023-05-02T07:23:26.817Z,54.60
2023-05-02T07:24:28.992Z,54.50
2023-05-02T07:25:31.162Z,54.40
2023-05-02T07:26:33.411Z,54.80
2023-05-02T07:27:37.209Z,54.60
2023-05-02T07:28:40.216Z,54.20
2023-05-02T07:29:42.864Z,54.10
2023-05-02T07:30:44.998Z,54.20
2023-05-02T07:31:47.160Z,54.30
2023-05-02T07:32:49.415Z,54.40
2023-05-02T07:33:51.642Z,54.30
2023-05-02T07:34:57.117Z,54.20
2023-05-02T07:35:59.298Z,54.10
2023-05-02T07:37:01.915Z,54.10
2023-05-02T07:38:04.022Z,54.40
2023-05-02T07:39:06.197Z,54.20
2023-05-02T07:40:10.051Z,54.20
2023-05-02T07:41:13.955Z,54.00
2023-05-02T07:42:16.285Z,54.00
2023-05-02T07:43:19.766Z,54.10
2023-05-02T07:44:22.152Z,54.20
2023-05-02T07:45:24.260Z,54.00
2023-05-02T07:46:26.426Z,54.20
2023-05-02T07:47:29.368Z,54.10
2023-05-02T07:48:31.752Z,53.90
2023-05-02T07:49:33.876Z,53.70
2023-05-02T07:50:36.109Z,53.80
2023-05-02T07:51:39.958Z,53.80
2023-05-02T07:52:42.075Z,53.60
2023-05-02T07:53:44.515Z,53.50
2023-05-02T07:54:48.365Z,53.10
2023-05-02T07:55:50.466Z,53.10
2023-05-02T07:56:53.079Z,53.00
2023-05-02T07:57:56.051Z,52.70
2023-05-02T07:58:59.570Z,52.80
2023-05-02T08:00:02.362Z,52.90
2023-05-02T08:01:05.425Z,52.80
2023-05-02T08:02:07.914Z,52.70
2023-05-02T08:03:10.500Z,52.60
2023-05-02T08:04:13.397Z,52.70
2023-05-02T08:05:16.108Z,52.60
2023-05-02T08:06:18.541Z,52.70
2023-05-02T08:07:21.499Z,53.00
2023-05-02T08:08:24.170Z,52.90
2023-05-02T08:09:26.862Z,52.40
2023-05-02T08:10:29.045Z,52.20
2023-05-02T08:11:31.214Z,52.20
2023-05-02T08:12:37.988Z,52.40
2023-05-02T08:13:40.178Z,52.00
2023-05-02T08:14:43.906Z,52.00
2023-05-02T08:15:46.405Z,52.20
2023-05-02T08:16:49.147Z,52.30
2023-05-02T08:17:52.216Z,52.50
2023-05-02T08:18:55.090Z,52.40
2023-05-02T08:19:58.339Z,52.10
2023-05-02T08:21:00.886Z,52.10
2023-05-02T08:22:03.133Z,52.40
2023-05-02T08:23:05.519Z,52.30
2023-05-02T08:24:07.931Z,51.80
2023-05-02T08:25:10.608Z,51.50
2023-05-02T08:26:13.020Z,51.50
2023-05-02T08:27:15.407Z,51.50
2023-05-02T08:28:18.729Z,51.40
2023-05-02T08:29:20.914Z,51.50
2023-05-02T08:30:24.666Z,51.40
2023-05-02T08:31:27.026Z,51.30
2023-05-02T08:32:30.219Z,51.30
2023-05-02T08:33:32.673Z,51.30
2023-05-02T08:34:35.024Z,51.40
2023-05-02T08:35:38.835Z,51.50
2023-05-02T08:36:43.437Z,51.40
2023-05-02T08:37:45.792Z,51.20
2023-05-02T08:38:48.943Z,51.30
2023-05-02T08:39:51.199Z,51.30
2023-05-02T08:40:53.456Z,51.30
2023-05-02T08:41:55.793Z,51.40
2023-05-02T08:42:58.306Z,51.50
2023-05-02T08:44:00.871Z,51.30
2023-05-02T08:45:04.046Z,51.30
2023-05-02T08:46:08.579Z,51.40
2023-05-02T08:47:15.060Z,51.50
2023-05-02T08:48:19.175Z,51.50
2023-05-02T08:49:22.483Z,51.20
2023-05-02T08:50:25.415Z,51.00
2023-05-02T08:51:29.432Z,51.10
2023-05-02T08:52:32.948Z,51.00
2023-05-02T08:53:36.754Z,50.90
2023-05-02T08:54:39.375Z,50.70
2023-05-02T08:55:42.989Z,50.60
2023-05-02T08:56:47.389Z,50.40
2023-05-02T08:57:50.281Z,50.50
2023-05-02T08:58:52.778Z,50.60
2023-05-02T08:59:55.129Z,50.70
2023-05-02T09:01:02.558Z,50.70
2023-05-02T09:02:29.487Z,50.80
2023-05-02T09:03:33.069Z,50.40
2023-05-02T09:04:41.490Z,50.20
2023-05-02T09:05:45.717Z,50.50
2023-05-02T09:06:48.062Z,50.30
2023-05-02T09:07:51.864Z,49.90
2023-05-02T09:08:54.189Z,50.00
2023-05-02T09:09:56.757Z,50.00
2023-05-02T09:10:59.430Z,50.00
2023-05-02T09:12:01.892Z,50.00
2023-05-02T09:13:32.103Z,50.00
2023-05-02T09:14:34.542Z,49.80
2023-05-02T09:15:36.990Z,49.70
2023-05-02T09:16:41.975Z,49.50
2023-05-02T09:17:47.048Z,49.30
2023-05-02T09:18:50.923Z,49.60
2023-05-02T09:20:00.913Z,49.80
2023-05-02T09:21:09.077Z,49.50
2023-05-02T09:22:11.256Z,49.40
2023-05-02T09:23:13.575Z,49.40
2023-05-02T09:24:18.284Z,49.30
2023-05-02T09:25:21.754Z,49.40
2023-05-02T09:26:28.841Z,49.50
2023-05-02T09:27:50.070Z,49.70
2023-05-02T09:28:53.329Z,49.50
2023-05-02T09:30:21.480Z,49.50
2023-05-02T09:31:49.809Z,49.40
2023-05-02T09:32:52.108Z,49.20
2023-05-02T09:33:55.613Z,49.30
2023-05-02T09:35:07.908Z,49.10
2023-05-02T09:36:14.774Z,49.10
2023-05-02T09:37:35.281Z,49.10
2023-05-02T09:38:38.956Z,49.10
2023-05-02T09:39:41.230Z,49.20
2023-05-02T09:40:55.658Z,49.10
2023-05-02T09:41:58.746Z,49.20
2023-05-02T09:43:14.660Z,49.00
2023-05-02T09:44:20.934Z,48.90
2023-05-02T09:45:24.906Z,49.00
2023-05-02T09:46:39.411Z,48.80
2023-05-02T09:47:41.820Z,48.60
2023-05-02T09:48:54.260Z,48.60
2023-05-02T09:49:56.468Z,48.80
2023-05-02T09:50:58.823Z,49.00
2023-05-02T09:52:11.405Z,48.90
2023-05-02T09:53:13.754Z,48.10
2023-05-02T09:54:36.390Z,47.70
2023-05-02T09:55:38.779Z,47.30
2023-05-02T09:56:54.379Z,47.20
2023-05-02T09:57:56.719Z,47.30
2023-05-02T09:59:15.068Z,47.30
2023-05-02T10:00:19.680Z,47.60
2023-05-02T10:01:23.517Z,47.30
2023-05-02T10:02:30.109Z,47.40
2023-05-02T10:03:35.101Z,47.50
2023-05-02T10:04:40.171Z,47.40
2023-05-02T10:05:45.187Z,47.50
2023-05-02T10:06:48.847Z,47.30
2023-05-02T10:07:51.338Z,47.40
2023-05-02T10:08:53.849Z,47.20
2023-05-02T10:09:58.590Z,47.30
2023-05-02T10:11:02.658Z,47.40
2023-05-02T10:12:06.693Z,47.40
2023-05-02T10:13:10.080Z,47.60
2023-05-02T10:14:13.032Z,47.60
2023-05-02T10:15:18.607Z,47.40
2023-05-02T10:16:29.130Z,47.90
2023-05-02T10:17:33.940Z,47.20
2023-05-02T10:18:43.244Z,47.40
2023-05-02T10:19:56.071Z,47.50
2023-05-02T10:21:00.178Z,47.40
2023-05-02T10:22:04.129Z,47.40
2023-05-02T10:23:06.523Z,47.50
2023-05-02T10:24:09.415Z,48.00
2023-05-02T10:25:13.467Z,47.60
2023-05-02T10:26:17.198Z,47.40
2023-05-02T10:27:19.941Z,47.10
2023-05-02T10:28:22.422Z,47.10
2023-05-02T10:29:24.865Z,47.10
2023-05-02T10:30:27.655Z,46.80
2023-05-02T10:31:34.489Z,46.40
2023-05-02T10:32:38.237Z,46.30
2023-05-02T10:33:41.133Z,46.10
2023-05-02T10:34:44.033Z,46.20
2023-05-02T10:35:47.907Z,46.30
2023-05-02T10:36:50.053Z,46.10
2023-05-02T10:37:53.037Z,46.00
2023-05-02T10:38:55.592Z,46.30
2023-05-02T10:39:58.862Z,46.00
2023-05-02T10:41:03.195Z,46.00
2023-05-02T10:42:07.126Z,45.90
2023-05-02T10:43:13.669Z,45.60
2023-05-02T10:44:15.846Z,45.70
2023-05-02T10:45:32.228Z,45.70
2023-05-02T10:46:36.197Z,45.90
2023-05-02T10:47:38.506Z,45.70
2023-05-02T10:48:40.825Z,45.10
2023-05-02T10:49:51.562Z,44.70
2023-05-02T10:50:56.062Z,44.80
2023-05-02T10:51:59.447Z,44.90
2023-05-02T10:53:25.283Z,44.80
2023-05-02T10:54:27.575Z,44.70
2023-05-02T10:55:30.080Z,45.30
2023-05-02T10:56:32.194Z,44.50
2023-05-02T10:57:34.271Z,44.30
2023-05-02T10:58:36.422Z,44.00
2023-05-02T10:59:40.024Z,44.30
2023-05-02T11:00:42.158Z,44.30
2023-05-02T11:01:44.551Z,44.40
2023-05-02T11:02:50.360Z,44.40
2023-05-02T11:03:56.353Z,44.70
2023-05-02T11:05:03.990Z,44.80
2023-05-02T11:06:08.242Z,44.80
2023-05-02T11:07:20.092Z,45.00
2023-05-02T11:08:31.377Z,45.20
2023-05-02T11:09:33.883Z,44.60
2023-05-02T11:10:36.116Z,44.40
2023-05-02T11:11:43.622Z,44.50
2023-05-02T11:12:48.590Z,44.70
2023-05-02T11:13:51.226Z,44.90
2023-05-02T11:14:53.430Z,44.80
2023-05-02T11:15:56.104Z,44.90
2023-05-02T11:17:08.800Z,45.00
2023-05-02T11:18:14.750Z,45.60
2023-05-02T11:19:16.929Z,46.00
2023-05-02T11:20:22.178Z,46.40
2023-05-02T11:21:30.039Z,46.30
2023-05-02T11:22:32.721Z,46.40
2023-05-02T11:23:37.002Z,46.50
2023-05-02T11:24:42.525Z,46.80
2023-05-02T11:25:46.885Z,46.80
2023-05-02T11:26:49.706Z,46.80
2023-05-02T11:27:51.785Z,46.70
2023-05-02T11:28:53.862Z,46.60
2023-05-02T11:29:57.457Z,46.80
2023-05-02T11:30:59.611Z,47.00
2023-05-02T11:32:01.985Z,47.00
2023-05-02T11:33:20.332Z,47.00
2023-05-02T11:34:22.763Z,47.10
2023-05-02T11:35:26.951Z,47.20
2023-05-02T11:36:30.945Z,47.60
2023-05-02T11:37:33.754Z,47.90
2023-05-02T11:38:37.655Z,47.90
2023-05-02T11:39:40.750Z,47.80
2023-05-02T11:40:53.833Z,48.10
2023-05-02T11:41:55.965Z,48.30
2023-05-02T11:42:59.478Z,48.30
2023-05-02T11:44:05.167Z,48.30
2023-05-02T11:45:07.884Z,48.60
2023-05-02T11:46:10.350Z,48.60
2023-05-02T11:47:12.607Z,48.70
2023-05-02T11:48:16.936Z,48.80
2023-05-02T11:49:19.129Z,48.90
2023-05-02T11:50:21.357Z,48.90
2023-05-02T11:51:23.697Z,49.00
2023-05-02T11:52:27.187Z,49.20
2023-05-02T11:53:30.114Z,49.40
2023-05-02T11:54:32.533Z,49.50
2023-05-02T11:55:35.485Z,49.80
2023-05-02T11:56:37.681Z,50.30
2023-05-02T11:57:40.374Z,50.20
2023-05-02T11:58:44.121Z,49.90
2023-05-02T11:59:52.945Z,50.00
2023-05-02T12:00:55.186Z,50.30
2023-05-02T12:01:58.183Z,50.50
2023-05-02T12:03:00.517Z,51.10
2023-05-02T12:04:03.799Z,51.00
2023-05-02T12:05:07.140Z,50.90
2023-05-02T12:06:14.050Z,50.80
2023-05-02T12:07:16.443Z,51.30
2023-05-02T12:08:22.007Z,51.30
2023-05-02T12:09:24.297Z,51.00
2023-05-02T12:10:36.469Z,51.20
2023-05-02T12:11:38.886Z,51.40
2023-05-02T12:12:43.478Z,51.40
2023-05-02T12:13:47.816Z,50.90
2023-05-02T12:14:50.985Z,50.30
2023-05-02T12:15:54.866Z,49.70
2023-05-02T12:16:59.417Z,49.50
2023-05-02T12:18:01.977Z,49.40
2023-05-02T12:19:05.032Z,49.60
2023-05-02T12:20:09.045Z,49.60
2023-05-02T12:21:11.321Z,49.80
2023-05-02T12:22:14.553Z,49.90
2023-05-02T12:23:16.861Z,50.00
2023-05-02T12:24:21.516Z,50.20
2023-05-02T12:25:23.645Z,50.60
2023-05-02T12:26:29.556Z,50.90
2023-05-02T12:27:33.494Z,51.10
2023-05-02T12:28:49.476Z,51.30
2023-05-02T12:29:52.074Z,51.30
2023-05-02T12:30:54.215Z,51.40
2023-05-02T12:31:56.533Z,51.60
2023-05-02T12:32:59.702Z,51.70
2023-05-02T12:34:01.999Z,52.00
2023-05-02T12:35:05.037Z,52.10
2023-05-02T12:36:08.343Z,52.30
2023-05-02T12:37:11.792Z,52.40
2023-05-02T12:38:16.404Z,52.50
2023-05-02T12:39:34.208Z,52.70
2023-05-02T12:40:36.616Z,52.80
2023-05-02T12:41:43.799Z,52.80
2023-05-02T12:42:59.958Z,53.10
2023-05-02T12:44:02.319Z,53.40
2023-05-02T12:45:05.863Z,53.40
2023-05-02T12:46:11.031Z,53.40
2023-05-02T12:47:14.854Z,53.40
2023-05-02T12:48:21.914Z,53.60
2023-05-02T12:49:24.027Z,53.70
2023-05-02T12:50:37.122Z,53.90
2023-05-02T12:51:40.350Z,54.20
2023-05-02T12:52:49.866Z,54.30
2023-05-02T12:53:51.996Z,54.30
2023-05-02T12:55:15.988Z,55.80
2023-05-02T12:56:18.197Z,58.30
2023-05-02T12:57:24.464Z,60.30
2023-05-02T12:58:28.635Z,62.50
2023-05-02T12:59:32.249Z,65.00
2023-05-02T13:00:36.758Z,67.50
2023-05-02T13:01:38.997Z,69.50
2023-05-02T13:02:41.158Z,70.80
2023-05-02T13:03:43.808Z,73.40
2023-05-02T13:04:45.968Z,76.10
2023-05-02T13:05:48.085Z,79.20
2023-05-02T13:06:50.252Z,82.70
2023-05-02T13:07:53.089Z,86.50
2023-05-02T13:08:55.202Z,89.30
2023-05-02T13:09:58.882Z,90.90
2023-05-02T13:11:01.377Z,93.00
2023-05-02T13:12:04.479Z,94.20
2023-05-02T13:13:07.534Z,95.70
2023-05-02T13:14:11.614Z,96.70
2023-05-02T13:15:14.322Z,97.90
2023-05-02T13:16:16.725Z,99.20
2023-05-02T13:17:19.387Z,99.90
2023-05-02T13:18:21.843Z,99.90
2023-05-02T13:19:23.998Z,99.90
2023-05-02T13:20:26.235Z,99.90
2023-05-02T13:21:28.338Z,99.90
2023-05-02T13:22:30.740Z,99.90
2023-05-02T13:23:32.898Z,99.90
2023-05-02T13:24:35.086Z,99.90
2023-05-02T13:25:38.984Z,99.90
2023-05-02T13:26:41.565Z,99.90
2023-05-02T13:27:43.691Z,99.90
2023-05-02T13:28:45.774Z,99.90
2023-05-02T13:29:49.722Z,99.90
2023-05-02T13:30:51.969Z,99.90
2023-05-02T13:31:54.210Z,99.90
2023-05-02T13:32:58.884Z,99.90
2023-05-02T13:34:01.074Z,99.90
2023-05-02T13:35:03.720Z,99.90
2023-05-02T13:36:06.282Z,99.90
2023-05-02T13:37:08.544Z,99.90
2023-05-02T13:38:10.947Z,99.90
2023-05-02T13:39:13.981Z,99.90
2023-05-02T13:40:16.267Z,99.90
2023-05-02T13:41:19.707Z,99.90
2023-05-02T13:42:21.846Z,99.90
2023-05-02T13:43:24.448Z,99.90
2023-05-02T13:44:26.640Z,99.90
2023-05-02T13:45:28.781Z,99.90
2023-05-02T13:46:36.527Z,99.90
2023-05-02T13:47:39.570Z,99.90
2023-05-02T13:48:43.196Z,99.90